Rio Blanco — D5BO9 — position and weather

sailwx.info

Track history (hours):
 
Tides and Currents Weather Stations Pressure Air Temp Water Temp Dewpoint Dewpoint Depression Visibility Wind Speed Wind Dir Waves Ship Positions

Rio Blanco

Last reported at 2017-May-24 07:29 UTC. Time now 2017-May-24 07:58 UTC.
Position N 39°34' W 009°51'.

Length 286 m; draft 9.4 m.

Type: Ship (hazmat cat A). MMSI: 636092395.

Date/timePositionNaut miles runAvg speedWind from/ knotsBaromVisibWave heightAir tempDewpointWater temp
2017-May-24 07:29N 39°34' W 009°51'918.5
2017-May-24 07:00N 39°25' W 009°51'918.4
2017-May-24 06:31N 39°16' W 009°52'918.2
2017-May-24 06:00N 39°07' W 009°52'918.3
2017-May-24 05:30N 38°58' W 009°52'917.9
2017-May-24 05:01N 38°49' W 009°52'917.8
2017-May-24 04:30N 38°40' W 009°51'918.2
2017-May-24 04:00N 38°31' W 009°48'918.5
2017-May-24 03:30N 38°22' W 009°45'918.6
2017-May-24 03:00N 38°13' W 009°43'918.4
2017-May-24 02:30N 38°04' W 009°40'918.3
2017-May-24 02:00N 37°55' W 009°36'918.2
2017-May-24 01:30N 37°47' W 009°33'918.5
2017-May-24 01:00N 37°38' W 009°30'918.8
2017-May-24 00:30N 37°28' W 009°28'918.8
2017-May-24 00:00N 37°19' W 009°26'2117.5
2017-May-24 00:00N 37°18' W 009°24'816.2 190 / 51014.7 5.4 20.015.419.0
2017-May-23 23:30N 37°10' W 009°23'918.4
2017-May-23 23:00N 37°01' W 009°21'918.2
2017-May-23 22:30N 36°52' W 009°18'918.3
2017-May-23 22:00N 36°45' W 009°11'918.2
2017-May-23 21:30N 36°42' W 009°00'918.1
2017-May-23 21:00N 36°39' W 008°49'1618.2
2017-May-23 20:08N 36°34' W 008°30'218.3
2017-May-23 19:59N 36°33' W 008°27'918.4
2017-May-23 19:30N 36°31' W 008°17'1019.3
2017-May-23 19:00N 36°28' W 008°05'1218.5
2017-May-23 18:20N 36°24' W 007°51'719.1
2017-May-23 17:58N 36°22' W 007°42'10319.1
2017-May-23 12:35N 35°58' W 005°39'119.3
2017-May-23 12:30N 35°58' W 005°37'918.1
2017-May-23 12:00N 36°00' W 005°26'917.6
2017-May-23 11:30N 36°03' W 005°15'1018.6
2017-May-23 10:58N 36°05' W 005°03'9519.2
2017-May-23 06:00N 36°18' W 003°06'11819.7 090 / 141016.5 5.4 19.914.718.0
2017-May-23 00:00N 36°42' W 000°42'4216.1 020 / 151015.510.8 19.617.219.0
2017-May-22 21:24N 36°55' E 000°08'819.2
2017-May-22 21:00N 36°57' E 000°17'1919.6
2017-May-22 20:03N 37°01' E 000°40'119.7
2017-May-22 20:00N 37°01' E 000°41'1319.7
2017-May-22 19:21N 37°04' E 000°56'719.4
2017-May-22 19:00N 37°06' E 001°04'1119.2
2017-May-22 18:27N 37°09' E 001°17'1022.7
2017-May-22 18:00N 37°06' E 001°30'634.7 120 / 151013.6 5.4 23.414.919.0
2017-May-22 17:49N 37°12' E 001°32'1819.9
2017-May-22 16:55N 37°15' E 001°55'819.9
2017-May-22 16:30N 37°17' E 002°05'1019.8
2017-May-22 16:01N 37°19' E 002°17'1019.8
2017-May-22 15:31N 37°21' E 002°29'1019.9
2017-May-22 15:01N 37°24' E 002°41'2019.6
2017-May-22 14:00N 37°29' E 003°05'1019.3
2017-May-22 13:30N 37°31' E 003°17'1019.4
2017-May-22 13:00N 37°32' E 003°29'919.3
2017-May-22 12:30N 37°33' E 003°41'1019.4
2017-May-22 12:00N 37°34' E 003°53'4336.3
2017-May-22 12:00N 37°30' E 003°54'1121.5 070 / 241016.210.8 23.114.919.0
2017-May-22 11:30N 37°36' E 004°05'1019.4
2017-May-22 11:00N 37°37' E 004°17'1019.3
2017-May-22 10:30N 37°38' E 004°29'918.9
2017-May-22 10:00N 37°39' E 004°41'1019.0
2017-May-22 09:30N 37°39' E 004°53'1019.1
2017-May-22 09:00N 37°39' E 005°05'1219.0
2017-May-22 08:22N 37°39' E 005°21'2519.2
2017-May-22 07:04N 37°40' E 005°52'319.1
2017-May-22 06:56N 37°40' E 005°55'819.0
2017-May-22 06:30N 37°40' E 006°06'6720.1
2017-May-22 03:10N 37°42' E 007°30'320.5
2017-May-22 03:00N 37°42' E 007°35'1020.3
2017-May-22 02:29N 37°42' E 007°48'4920.1
2017-May-22 00:01N 37°44' E 008°50'3116.8
2017-May-22 00:00N 37°42' E 008°54'2113.6 270 / 51019.710.8 17.612.719.0
2017-May-21 23:58N 37°44' E 008°52'919.4
2017-May-21 23:29N 37°44' E 009°04'21618.8
2017-May-21 12:00N 36°18' E 013°12'4419.2 320 / 271016.510.8 22.112.619.0
2017-May-21 09:43N 35°54' E 013°57'417.4
2017-May-21 09:30N 35°52' E 014°01'816.7
2017-May-21 09:00N 35°47' E 014°09'816.9
2017-May-21 08:30N 35°42' E 014°17'611.7
2017-May-21 08:00N 35°43' E 014°25'713.9
2017-May-21 07:29N 35°46' E 014°32'3 6.7
2017-May-21 07:00N 35°49' E 014°32'0 0.5
2017-May-21 06:28N 35°49' E 014°33'0 0.0
2017-May-21 04:54N 35°49' E 014°33'0 0.0
2017-May-21 04:30N 35°49' E 014°33'0 0.0
2017-May-21 04:00N 35°49' E 014°33'0 0.0
2017-May-21 02:39N 35°49' E 014°33'0 0.0
2017-May-20 19:18N 35°49' E 014°33'0 0.0
2017-May-20 18:51N 35°49' E 014°33'0 0.0
2017-May-20 18:30N 35°49' E 014°33'0 0.0
2017-May-20 17:57N 35°49' E 014°33'0 0.0
2017-May-20 17:30N 35°49' E 014°33'0 0.0
2017-May-20 17:00N 35°49' E 014°33'0 0.0
2017-May-20 16:30N 35°49' E 014°33'0 0.0
2017-May-20 16:00N 35°49' E 014°33'0 0.0
2017-May-20 15:30N 35°49' E 014°33'0 0.0
2017-May-20 14:58N 35°49' E 014°33'0 0.9
2017-May-20 14:30N 35°49' E 014°32'3 3.3
2017-May-20 13:30N 35°47' E 014°35'3 6.3
2017-May-20 13:00N 35°46' E 014°32'510.9
2017-May-20 12:30N 35°46' E 014°25'612.5
2017-May-20 12:00N 35°48' E 014°18'612.6
2017-May-20 11:30N 35°52' E 014°11'612.6
2017-May-20 11:00N 35°55' E 014°05'612.5
2017-May-20 10:30N 35°58' E 013°58'612.5
2017-May-20 10:00N 36°02' E 013°52'612.9
2017-May-20 09:30N 36°05' E 013°45'612.9
2017-May-20 09:00N 36°09' E 013°39'712.8
2017-May-20 08:30N 36°13' E 013°32'612.6
2017-May-20 08:00N 36°16' E 013°25'612.7
2017-May-20 07:30N 36°19' E 013°19'813.8
2017-May-20 06:58N 36°23' E 013°11'714.0
2017-May-20 06:26N 36°27' E 013°03'1227.8
2017-May-20 06:00N 36°30' E 012°48'592.8 330 / 191019.210.8 18.812.319.0
2017-May-20 05:56N 36°32' E 012°54'715.1
2017-May-20 05:30N 36°35' E 012°47'815.2
2017-May-20 05:00N 36°39' E 012°39'715.3
2017-May-20 04:30N 36°43' E 012°31'815.4
2017-May-20 04:00N 36°47' E 012°23'6516.1
2017-May-20 00:00N 37°18' E 011°12'4413.0 280 / 211019.010.8 18.614.119.0
2017-May-19 20:38N 37°39' E 010°24'214.9
2017-May-19 20:28N 37°40' E 010°21'814.8
2017-May-19 19:57N 37°43' E 010°12'714.5
2017-May-19 19:30N 37°44' E 010°04'1114.1
2017-May-19 18:42N 37°47' E 009°50'314.0
2017-May-19 18:29N 37°47' E 009°46'2714.3
2017-May-19 16:34N 37°53' E 009°12'414.4
2017-May-19 16:18N 37°54' E 009°08'514.5
2017-May-19 15:59N 37°55' E 009°02'914.7
2017-May-19 15:22N 37°57' E 008°51'615.1
2017-May-19 14:59N 37°58' E 008°44'1714.9
2017-May-19 13:51N 38°03' E 008°23'514.3
2017-May-19 13:30N 38°04' E 008°17'1414.1
2017-May-19 12:31N 38°07' E 007°60'114.0
2017-May-19 12:29N 38°07' E 007°59'714.3
2017-May-19 11:58N 38°09' E 007°50'2413.9
2017-May-19 10:16N 38°14' E 007°21'1013.6
2017-May-19 09:33N 38°18' E 007°09'114.3
2017-May-19 09:28N 38°19' E 007°08'4713.5
2017-May-19 06:00N 38°30' E 008°06'6014.4 270 / 141012.210.8 19.515.618.0
2017-May-19 01:52N 38°49' E 009°18'1315.6
2017-May-19 01:00N 38°55' E 009°34'815.6
2017-May-19 00:30N 38°58' E 009°43'815.4
2017-May-19 00:00N 39°01' E 009°52'1173.0
2017-May-19 00:00N 39°00' E 009°54'714.0 140 / 161013.810.8 20.116.520.0
2017-May-18 23:30N 39°04' E 010°01'815.5
2017-May-18 23:00N 39°07' E 010°10'2015.7
2017-May-18 21:43N 39°15' E 010°34'415.8
2017-May-18 21:29N 39°16' E 010°39'815.8
2017-May-18 20:59N 39°19' E 010°48'815.6
2017-May-18 20:30N 39°22' E 010°57'815.6
2017-May-18 20:00N 39°25' E 011°07'815.6
2017-May-18 19:31N 39°29' E 011°16'815.5
2017-May-18 19:01N 39°32' E 011°25'815.6
2017-May-18 18:31N 39°35' E 011°34'815.5
2017-May-18 18:00N 39°38' E 011°43'815.6
2017-May-18 17:30N 39°41' E 011°53'815.5
2017-May-18 17:00N 39°44' E 012°02'815.6
2017-May-18 16:30N 39°47' E 012°11'815.6
2017-May-18 16:00N 39°50' E 012°21'815.6
2017-May-18 15:30N 39°53' E 012°30'815.7
2017-May-18 15:00N 39°56' E 012°40'1716.6
2017-May-18 14:00N 40°03' E 012°60'713.9
2017-May-18 13:29N 40°06' E 013°08'715.7
2017-May-18 13:01N 40°09' E 013°17'815.8
2017-May-18 12:31N 40°12' E 013°26'815.7
2017-May-18 12:01N 40°15' E 013°36'815.6
2017-May-18 11:31N 40°18' E 013°45'915.4
2017-May-18 10:57N 40°21' E 013°56'715.2
2017-May-18 10:31N 40°24' E 014°04'815.3
2017-May-18 10:00N 40°27' E 014°13'87 3.6
2017-May-17 09:30N 39°13' E 015°15'1016.9
2017-May-17 08:55N 39°04' E 015°19'716.4
2017-May-17 08:30N 38°58' E 015°23'816.6
2017-May-17 08:00N 38°50' E 015°27'816.9
2017-May-17 07:30N 38°43' E 015°31'816.9
2017-May-17 07:01N 38°35' E 015°35'917.6
2017-May-17 06:30N 38°26' E 015°39'917.0
2017-May-17 06:00N 38°18' E 015°43'714.4
2017-May-17 05:31N 38°13' E 015°37'714.6
2017-May-17 05:01N 38°05' E 015°36'611.9
2017-May-17 04:31N 37°59' E 015°36'714.2
2017-May-17 04:00N 37°53' E 015°41'816.9
2017-May-17 03:30N 37°49' E 015°50'917.1
2017-May-17 03:00N 37°45' E 015°60'918.0
2017-May-17 02:31N 37°42' E 016°10'918.1
2017-May-17 02:01N 37°38' E 016°21'1017.8
2017-May-17 01:26N 37°34' E 016°32'3121.5
2017-May-17 00:00N 37°18' E 017°06'9315.6 020 / 301017.010.8 19.914.319.0
2017-May-16 18:00N 36°42' E 018°54'20717.3 180 / 101017.110.8 20.013.919.0
2017-May-16 06:00N 35°18' E 022°48'40216.7 020 / 241015.910.8 23.211.619.0
2017-May-15 05:57N 32°28' E 030°06'2617.0
2017-May-15 04:25N 32°16' E 030°34'2917.2
2017-May-15 02:44N 32°03' E 031°04'2117.0
2017-May-15 01:31N 31°53' E 031°26'117.3
2017-May-15 01:27N 31°53' E 031°27'1317.0
2017-May-15 00:42N 31°47' E 031°40'417.3
2017-May-15 00:30N 31°44' E 031°43'916.2
2017-May-14 23:57N 31°36' E 031°47'614.8
2017-May-14 23:30N 31°30' E 031°46'2 4.2
2017-May-14 23:00N 31°28' E 031°46'0 0.0
2017-May-14 22:16N 31°28' E 031°46'0 0.0
2017-May-14 20:56N 31°28' E 031°46'0 0.0
2017-May-14 20:26N 31°28' E 031°46'0 0.0
2017-May-14 19:59N 31°28' E 031°46'0 0.0
2017-May-14 19:26N 31°28' E 031°46'0 0.0
2017-May-14 18:50N 31°28' E 031°46'17 3.3
2017-May-14 13:41N 31°43' E 031°55'4 9.4
2017-May-14 13:15N 31°45' E 031°59'311.8
2017-May-14 13:00N 31°48' E 032°00'611.9
2017-May-14 12:30N 31°53' E 032°04'612.0
2017-May-14 12:00N 31°58' E 032°07'612.0
2017-May-14 11:30N 32°03' E 032°11'611.9
2017-May-14 11:00N 32°09' E 032°14'611.6
2017-May-14 10:30N 32°14' E 032°18'611.7
2017-May-14 10:00N 32°19' E 032°21'611.6
2017-May-14 09:30N 32°24' E 032°25'611.5
2017-May-14 09:00N 32°29' E 032°28'611.5
2017-May-14 08:30N 32°34' E 032°32'611.5
2017-May-14 08:00N 32°39' E 032°35'611.5
2017-May-14 07:30N 32°43' E 032°39'  
Track history (hours):
 
Tides and Currents Weather Stations Pressure Air Temp Water Temp Dewpoint Dewpoint Depression Visibility Wind Speed Wind Dir Waves Ship Positions

Rio Blanco

Last reported at 2017-May-24 07:29 UTC. Time now 2017-May-24 07:58 UTC.
Position N 39°34' W 009°51'.

Length 286 m; draft 9.4 m.

Type: Ship (hazmat cat A). MMSI: 636092395.

Date/timePositionNaut miles runAvg speedWind from/ knotsBaromVisibWave heightAir tempDewpointWater temp
2017-May-24 07:29N 39°34' W 009°51'918.5
2017-May-24 07:00N 39°25' W 009°51'918.4
2017-May-24 06:31N 39°16' W 009°52'918.2
2017-May-24 06:00N 39°07' W 009°52'918.3
2017-May-24 05:30N 38°58' W 009°52'917.9
2017-May-24 05:01N 38°49' W 009°52'917.8
2017-May-24 04:30N 38°40' W 009°51'918.2
2017-May-24 04:00N 38°31' W 009°48'918.5
2017-May-24 03:30N 38°22' W 009°45'918.6
2017-May-24 03:00N 38°13' W 009°43'918.4
2017-May-24 02:30N 38°04' W 009°40'918.3
2017-May-24 02:00N 37°55' W 009°36'918.2
2017-May-24 01:30N 37°47' W 009°33'918.5
2017-May-24 01:00N 37°38' W 009°30'918.8
2017-May-24 00:30N 37°28' W 009°28'918.8
2017-May-24 00:00N 37°19' W 009°26'2117.5
2017-May-24 00:00N 37°18' W 009°24'816.2 190 / 51014.7 5.4 20.015.419.0
2017-May-23 23:30N 37°10' W 009°23'918.4
2017-May-23 23:00N 37°01' W 009°21'918.2
2017-May-23 22:30N 36°52' W 009°18'918.3
2017-May-23 22:00N 36°45' W 009°11'918.2
2017-May-23 21:30N 36°42' W 009°00'918.1
2017-May-23 21:00N 36°39' W 008°49'1618.2
2017-May-23 20:08N 36°34' W 008°30'218.3
2017-May-23 19:59N 36°33' W 008°27'918.4
2017-May-23 19:30N 36°31' W 008°17'1019.3
2017-May-23 19:00N 36°28' W 008°05'1218.5
2017-May-23 18:20N 36°24' W 007°51'719.1
2017-May-23 17:58N 36°22' W 007°42'10319.1
2017-May-23 12:35N 35°58' W 005°39'119.3
2017-May-23 12:30N 35°58' W 005°37'918.1
2017-May-23 12:00N 36°00' W 005°26'917.6
2017-May-23 11:30N 36°03' W 005°15'1018.6
2017-May-23 10:58N 36°05' W 005°03'9519.2
2017-May-23 06:00N 36°18' W 003°06'11819.7 090 / 141016.5 5.4 19.914.718.0
2017-May-23 00:00N 36°42' W 000°42'4216.1 020 / 151015.510.8 19.617.219.0
2017-May-22 21:24N 36°55' E 000°08'819.2
2017-May-22 21:00N 36°57' E 000°17'1919.6
2017-May-22 20:03N 37°01' E 000°40'119.7
2017-May-22 20:00N 37°01' E 000°41'1319.7
2017-May-22 19:21N 37°04' E 000°56'719.4
2017-May-22 19:00N 37°06' E 001°04'1119.2
2017-May-22 18:27N 37°09' E 001°17'1022.7
2017-May-22 18:00N 37°06' E 001°30'634.7 120 / 151013.6 5.4 23.414.919.0
2017-May-22 17:49N 37°12' E 001°32'1819.9
2017-May-22 16:55N 37°15' E 001°55'819.9
2017-May-22 16:30N 37°17' E 002°05'1019.8
2017-May-22 16:01N 37°19' E 002°17'1019.8
2017-May-22 15:31N 37°21' E 002°29'1019.9
2017-May-22 15:01N 37°24' E 002°41'2019.6
2017-May-22 14:00N 37°29' E 003°05'1019.3
2017-May-22 13:30N 37°31' E 003°17'1019.4
2017-May-22 13:00N 37°32' E 003°29'919.3
2017-May-22 12:30N 37°33' E 003°41'1019.4
2017-May-22 12:00N 37°34' E 003°53'4336.3
2017-May-22 12:00N 37°30' E 003°54'1121.5 070 / 241016.210.8 23.114.919.0
2017-May-22 11:30N 37°36' E 004°05'1019.4
2017-May-22 11:00N 37°37' E 004°17'1019.3
2017-May-22 10:30N 37°38' E 004°29'918.9
2017-May-22 10:00N 37°39' E 004°41'1019.0
2017-May-22 09:30N 37°39' E 004°53'1019.1
2017-May-22 09:00N 37°39' E 005°05'1219.0
2017-May-22 08:22N 37°39' E 005°21'2519.2
2017-May-22 07:04N 37°40' E 005°52'319.1
2017-May-22 06:56N 37°40' E 005°55'819.0
2017-May-22 06:30N 37°40' E 006°06'6720.1
2017-May-22 03:10N 37°42' E 007°30'320.5
2017-May-22 03:00N 37°42' E 007°35'1020.3
2017-May-22 02:29N 37°42' E 007°48'4920.1
2017-May-22 00:01N 37°44' E 008°50'3116.8
2017-May-22 00:00N 37°42' E 008°54'2113.6 270 / 51019.710.8 17.612.719.0
2017-May-21 23:58N 37°44' E 008°52'919.4
2017-May-21 23:29N 37°44' E 009°04'21618.8
2017-May-21 12:00N 36°18' E 013°12'4419.2 320 / 271016.510.8 22.112.619.0
2017-May-21 09:43N 35°54' E 013°57'417.4
2017-May-21 09:30N 35°52' E 014°01'816.7
2017-May-21 09:00N 35°47' E 014°09'816.9
2017-May-21 08:30N 35°42' E 014°17'611.7
2017-May-21 08:00N 35°43' E 014°25'713.9
2017-May-21 07:29N 35°46' E 014°32'3 6.7
2017-May-21 07:00N 35°49' E 014°32'0 0.5
2017-May-21 06:28N 35°49' E 014°33'0 0.0
2017-May-21 04:54N 35°49' E 014°33'0 0.0
2017-May-21 04:30N 35°49' E 014°33'0 0.0
2017-May-21 04:00N 35°49' E 014°33'0 0.0
2017-May-21 02:39N 35°49' E 014°33'0 0.0
2017-May-20 19:18N 35°49' E 014°33'0 0.0
2017-May-20 18:51N 35°49' E 014°33'0 0.0
2017-May-20 18:30N 35°49' E 014°33'0 0.0
2017-May-20 17:57N 35°49' E 014°33'0 0.0
2017-May-20 17:30N 35°49' E 014°33'0 0.0
2017-May-20 17:00N 35°49' E 014°33'0 0.0
2017-May-20 16:30N 35°49' E 014°33'0 0.0
2017-May-20 16:00N 35°49' E 014°33'0 0.0
2017-May-20 15:30N 35°49' E 014°33'0 0.0
2017-May-20 14:58N 35°49' E 014°33'0 0.9
2017-May-20 14:30N 35°49' E 014°32'3 3.3
2017-May-20 13:30N 35°47' E 014°35'3 6.3
2017-May-20 13:00N 35°46' E 014°32'510.9
2017-May-20 12:30N 35°46' E 014°25'612.5
2017-May-20 12:00N 35°48' E 014°18'612.6
2017-May-20 11:30N 35°52' E 014°11'612.6
2017-May-20 11:00N 35°55' E 014°05'612.5
2017-May-20 10:30N 35°58' E 013°58'612.5
2017-May-20 10:00N 36°02' E 013°52'612.9
2017-May-20 09:30N 36°05' E 013°45'612.9
2017-May-20 09:00N 36°09' E 013°39'712.8
2017-May-20 08:30N 36°13' E 013°32'612.6
2017-May-20 08:00N 36°16' E 013°25'612.7
2017-May-20 07:30N 36°19' E 013°19'813.8
2017-May-20 06:58N 36°23' E 013°11'714.0
2017-May-20 06:26N 36°27' E 013°03'1227.8
2017-May-20 06:00N 36°30' E 012°48'592.8 330 / 191019.210.8 18.812.319.0
2017-May-20 05:56N 36°32' E 012°54'715.1
2017-May-20 05:30N 36°35' E 012°47'815.2
2017-May-20 05:00N 36°39' E 012°39'715.3
2017-May-20 04:30N 36°43' E 012°31'815.4
2017-May-20 04:00N 36°47' E 012°23'6516.1
2017-May-20 00:00N 37°18' E 011°12'4413.0 280 / 211019.010.8 18.614.119.0
2017-May-19 20:38N 37°39' E 010°24'214.9
2017-May-19 20:28N 37°40' E 010°21'814.8
2017-May-19 19:57N 37°43' E 010°12'714.5
2017-May-19 19:30N 37°44' E 010°04'1114.1
2017-May-19 18:42N 37°47' E 009°50'314.0
2017-May-19 18:29N 37°47' E 009°46'2714.3
2017-May-19 16:34N 37°53' E 009°12'414.4
2017-May-19 16:18N 37°54' E 009°08'514.5
2017-May-19 15:59N 37°55' E 009°02'914.7
2017-May-19 15:22N 37°57' E 008°51'615.1
2017-May-19 14:59N 37°58' E 008°44'1714.9
2017-May-19 13:51N 38°03' E 008°23'514.3
2017-May-19 13:30N 38°04' E 008°17'1414.1
2017-May-19 12:31N 38°07' E 007°60'114.0
2017-May-19 12:29N 38°07' E 007°59'714.3
2017-May-19 11:58N 38°09' E 007°50'2413.9
2017-May-19 10:16N 38°14' E 007°21'1013.6
2017-May-19 09:33N 38°18' E 007°09'114.3
2017-May-19 09:28N 38°19' E 007°08'4713.5
2017-May-19 06:00N 38°30' E 008°06'6014.4 270 / 141012.210.8 19.515.618.0
2017-May-19 01:52N 38°49' E 009°18'1315.6
2017-May-19 01:00N 38°55' E 009°34'815.6
2017-May-19 00:30N 38°58' E 009°43'815.4
2017-May-19 00:00N 39°01' E 009°52'1173.0
2017-May-19 00:00N 39°00' E 009°54'714.0 140 / 161013.810.8 20.116.520.0
2017-May-18 23:30N 39°04' E 010°01'815.5
2017-May-18 23:00N 39°07' E 010°10'2015.7
2017-May-18 21:43N 39°15' E 010°34'415.8
2017-May-18 21:29N 39°16' E 010°39'815.8
2017-May-18 20:59N 39°19' E 010°48'815.6
2017-May-18 20:30N 39°22' E 010°57'815.6
2017-May-18 20:00N 39°25' E 011°07'815.6
2017-May-18 19:31N 39°29' E 011°16'815.5
2017-May-18 19:01N 39°32' E 011°25'815.6
2017-May-18 18:31N 39°35' E 011°34'815.5
2017-May-18 18:00N 39°38' E 011°43'815.6
2017-May-18 17:30N 39°41' E 011°53'815.5
2017-May-18 17:00N 39°44' E 012°02'815.6
2017-May-18 16:30N 39°47' E 012°11'815.6
2017-May-18 16:00N 39°50' E 012°21'815.6
2017-May-18 15:30N 39°53' E 012°30'815.7
2017-May-18 15:00N 39°56' E 012°40'1716.6
2017-May-18 14:00N 40°03' E 012°60'713.9
2017-May-18 13:29N 40°06' E 013°08'715.7
2017-May-18 13:01N 40°09' E 013°17'815.8
2017-May-18 12:31N 40°12' E 013°26'815.7
2017-May-18 12:01N 40°15' E 013°36'815.6
2017-May-18 11:31N 40°18' E 013°45'915.4
2017-May-18 10:57N 40°21' E 013°56'715.2
2017-May-18 10:31N 40°24' E 014°04'815.3
2017-May-18 10:00N 40°27' E 014°13'87 3.6
2017-May-17 09:30N 39°13' E 015°15'1016.9
2017-May-17 08:55N 39°04' E 015°19'716.4
2017-May-17 08:30N 38°58' E 015°23'816.6
2017-May-17 08:00N 38°50' E 015°27'816.9
2017-May-17 07:30N 38°43' E 015°31'816.9
2017-May-17 07:01N 38°35' E 015°35'917.6
2017-May-17 06:30N 38°26' E 015°39'917.0
2017-May-17 06:00N 38°18' E 015°43'714.4
2017-May-17 05:31N 38°13' E 015°37'714.6
2017-May-17 05:01N 38°05' E 015°36'611.9
2017-May-17 04:31N 37°59' E 015°36'714.2
2017-May-17 04:00N 37°53' E 015°41'816.9
2017-May-17 03:30N 37°49' E 015°50'917.1
2017-May-17 03:00N 37°45' E 015°60'918.0
2017-May-17 02:31N 37°42' E 016°10'918.1
2017-May-17 02:01N 37°38' E 016°21'1017.8
2017-May-17 01:26N 37°34' E 016°32'3121.5
2017-May-17 00:00N 37°18' E 017°06'9315.6 020 / 301017.010.8 19.914.319.0
2017-May-16 18:00N 36°42' E 018°54'20717.3 180 / 101017.110.8 20.013.919.0
2017-May-16 06:00N 35°18' E 022°48'40216.7 020 / 241015.910.8 23.211.619.0
2017-May-15 05:57N 32°28' E 030°06'2617.0
2017-May-15 04:25N 32°16' E 030°34'2917.2
2017-May-15 02:44N 32°03' E 031°04'2117.0
2017-May-15 01:31N 31°53' E 031°26'117.3
2017-May-15 01:27N 31°53' E 031°27'1317.0
2017-May-15 00:42N 31°47' E 031°40'417.3
2017-May-15 00:30N 31°44' E 031°43'916.2
2017-May-14 23:57N 31°36' E 031°47'614.8
2017-May-14 23:30N 31°30' E 031°46'2 4.2
2017-May-14 23:00N 31°28' E 031°46'0 0.0
2017-May-14 22:16N 31°28' E 031°46'0 0.0
2017-May-14 20:56N 31°28' E 031°46'0 0.0
2017-May-14 20:26N 31°28' E 031°46'0 0.0
2017-May-14 19:59N 31°28' E 031°46'0 0.0
2017-May-14 19:26N 31°28' E 031°46'0 0.0
2017-May-14 18:50N 31°28' E 031°46'17 3.3
2017-May-14 13:41N 31°43' E 031°55'4 9.4
2017-May-14 13:15N 31°45' E 031°59'311.8
2017-May-14 13:00N 31°48' E 032°00'611.9
2017-May-14 12:30N 31°53' E 032°04'612.0
2017-May-14 12:00N 31°58' E 032°07'612.0
2017-May-14 11:30N 32°03' E 032°11'611.9
2017-May-14 11:00N 32°09' E 032°14'611.6
2017-May-14 10:30N 32°14' E 032°18'611.7
2017-May-14 10:00N 32°19' E 032°21'611.6
2017-May-14 09:30N 32°24' E 032°25'611.5
2017-May-14 09:00N 32°29' E 032°28'611.5
2017-May-14 08:30N 32°34' E 032°32'611.5
2017-May-14 08:00N 32°39' E 032°35'611.5
2017-May-14 07:30N 32°43' E 032°39'  

Dump ship's entire track history